Main page
METAR-TAF:

METAR-TAF

Airports :

Gwadar International Airport

Gwadar, Pakistan

latitude: 25-13-59N, longitude: 062-19-46E, elevation: 29 m

METAR: missing

Time: 13:12 (08:12 UTC)

Forecast

The report was made 4 hours and 42 minutes ago, at 03:30 UTC
Forecast valid from 25 at 06 UTC to 26 at 06 UTC
Wind 5 kt from the Southwest with gusts up to 15 kt
Visibility: 5000 m
haze
From 25 at 1800 UTC
Wind 5 kt from the South
Visibility: 4000 m
Few clouds at a height of 2000 ft
haze
Temporary
from 26 at 01 UTC to 26 at 05 UTC
Wind 3 kt from variable directions
Visibility: 3000 m
Scattered clouds at a height of 2000 ft
smoke

TAF: OPGD 250330Z 2506/2606 23005G15KT 5000 HZ NSC FM251800 18005KT 4000 HZ FEW020 TEMPO 2601/2605 VRB03KT 3000 FU SCT020

Weather observations and forecasts of more than 4000 airports (METAR and TAF reports).

The available stations are represented by yellow and red dots on the map.

Hover mouse over dot to see the name of the station.

Then click to see weather observations and forecasts.

To change the map : click on the green buttons with a black cross to zoom in, on the green button with a dash to zoom out, or on the green arrows for adjacent maps.


METAR-TAF: